createdAt,value
2022-11-01T00:02:06.742Z,3.35
2022-11-01T00:04:33.777Z,2.92
2022-11-01T00:07:00.801Z,2.17
2022-11-01T00:09:27.632Z,3.10
2022-11-01T00:11:54.642Z,2.72
2022-11-01T00:14:21.515Z,2.25
2022-11-01T00:16:48.534Z,2.60
2022-11-01T00:19:15.580Z,2.70
2022-11-01T00:21:42.430Z,2.28
2022-11-01T00:24:09.415Z,2.92
2022-11-01T00:26:36.339Z,3.22
2022-11-01T00:29:03.480Z,2.90
2022-11-01T00:31:30.381Z,2.20
2022-11-01T00:33:57.208Z,2.45
2022-11-01T00:36:24.036Z,2.22
2022-11-01T00:38:51.699Z,3.53
2022-11-01T00:41:20.694Z,2.72
2022-11-01T00:43:47.582Z,3.00
2022-11-01T00:46:14.375Z,2.97
2022-11-01T00:48:41.385Z,2.50
2022-11-01T00:51:08.272Z,2.58
2022-11-01T00:53:35.092Z,2.92
2022-11-01T00:56:05.459Z,3.25
2022-11-01T00:58:32.315Z,2.70
2022-11-01T01:00:59.383Z,3.40
2022-11-01T01:03:26.481Z,2.40
2022-11-01T01:05:53.615Z,1.95
2022-11-01T01:08:20.884Z,2.95
2022-11-01T01:10:47.791Z,3.40
2022-11-01T01:13:14.719Z,2.00
2022-11-01T01:15:41.700Z,2.50
2022-11-01T01:18:08.671Z,2.33
2022-11-01T01:20:35.769Z,2.60
2022-11-01T01:23:02.662Z,3.05
2022-11-01T01:25:29.500Z,2.45
2022-11-01T01:27:56.578Z,2.10
2022-11-01T01:30:23.520Z,2.50
2022-11-01T01:32:50.364Z,2.40
2022-11-01T01:35:17.275Z,3.00
2022-11-01T01:37:44.069Z,2.67
2022-11-01T01:40:11.052Z,2.47
2022-11-01T01:42:39.541Z,2.33
2022-11-01T01:45:09.504Z,2.65
2022-11-01T01:47:38.136Z,2.80
2022-11-01T01:50:08.059Z,2.97
2022-11-01T01:52:50.019Z,2.78
2022-11-01T01:55:20.148Z,2.47
2022-11-01T01:57:46.990Z,2.92
2022-11-01T02:00:14.222Z,2.58
2022-11-01T02:02:41.224Z,2.50
2022-11-01T02:05:31.063Z,3.22
2022-11-01T02:07:58.194Z,3.20
2022-11-01T02:10:25.186Z,3.38
2022-11-01T02:12:52.378Z,3.95
2022-11-01T02:15:19.690Z,4.30
2022-11-01T02:18:11.531Z,4.13
2022-11-01T02:20:50.939Z,3.70
2022-11-01T02:23:45.201Z,2.83
2022-11-01T02:26:14.902Z,2.80
2022-11-01T02:29:03.212Z,3.05
2022-11-01T02:32:01.015Z,2.20
2022-11-01T02:35:05.891Z,2.10
2022-11-01T02:37:53.271Z,2.03
2022-11-01T02:40:50.773Z,2.00
2022-11-01T02:43:24.240Z,1.58
2022-11-01T02:45:51.080Z,1.50
2022-11-01T02:48:19.531Z,1.20
2022-11-01T02:50:47.813Z,1.20
2022-11-01T02:53:14.640Z,1.20
2022-11-01T02:55:41.445Z,1.40
2022-11-01T02:58:25.338Z,1.13
2022-11-01T03:00:52.491Z,1.10
2022-11-01T03:03:20.623Z,1.23
2022-11-01T03:05:59.605Z,1.10
2022-11-01T03:09:05.741Z,1.27
2022-11-01T03:11:50.752Z,1.40
2022-11-01T03:14:25.507Z,1.67
2022-11-01T03:17:14.436Z,1.67
2022-11-01T03:19:46.749Z,1.60
2022-11-01T03:25:00.888Z,2.17
2022-11-01T03:27:36.354Z,2.00
2022-11-01T03:30:04.789Z,2.55
2022-11-01T03:32:47.917Z,2.30
2022-11-01T03:35:18.033Z,2.38
2022-11-01T03:37:44.925Z,2.90
2022-11-01T03:40:11.886Z,2.75
2022-11-01T03:42:38.746Z,2.17
2022-11-01T03:45:09.060Z,2.83
2022-11-01T03:47:36.456Z,2.75
2022-11-01T03:50:13.713Z,2.50
2022-11-01T03:52:40.739Z,2.45
2022-11-01T03:55:19.780Z,2.45
2022-11-01T03:57:50.560Z,2.30
2022-11-01T04:00:19.600Z,2.63
2022-11-01T04:02:46.761Z,2.45
2022-11-01T04:05:13.780Z,2.85
2022-11-01T04:07:40.607Z,2.53
2022-11-01T04:10:07.933Z,2.70
2022-11-01T04:12:34.759Z,2.67
2022-11-01T04:15:19.976Z,2.63
2022-11-01T04:18:05.432Z,2.38
2022-11-01T04:20:35.174Z,2.65
2022-11-01T04:23:03.305Z,2.75
2022-11-01T04:25:30.943Z,2.40
2022-11-01T04:27:57.958Z,2.50
2022-11-01T04:30:25.842Z,2.20
2022-11-01T04:32:52.659Z,2.20
2022-11-01T04:35:19.495Z,2.80
2022-11-01T04:37:46.559Z,2.72
2022-11-01T04:40:13.976Z,3.22
2022-11-01T04:42:40.959Z,2.30
2022-11-01T04:45:08.683Z,3.30
2022-11-01T04:47:35.602Z,2.70
2022-11-01T04:50:02.436Z,2.00
2022-11-01T04:52:29.271Z,2.95
2022-11-01T04:54:56.113Z,2.53
2022-11-01T04:57:22.959Z,2.35
2022-11-01T04:59:50.820Z,2.60
2022-11-01T05:02:18.307Z,2.65
2022-11-01T05:04:45.421Z,2.40
2022-11-01T05:07:12.586Z,2.75
2022-11-01T05:09:39.397Z,2.45
2022-11-01T05:12:06.472Z,2.33
2022-11-01T05:14:33.346Z,2.47
2022-11-01T05:17:00.346Z,2.85
2022-11-01T05:19:27.190Z,2.70
2022-11-01T05:21:53.984Z,3.22
2022-11-01T05:24:20.830Z,2.45
2022-11-01T05:26:49.286Z,2.58
2022-11-01T05:29:24.787Z,2.65
2022-11-01T05:31:59.317Z,2.65
2022-11-01T05:34:26.083Z,2.60
2022-11-01T05:36:53.860Z,2.65
2022-11-01T05:39:20.741Z,3.00
2022-11-01T05:41:47.574Z,3.00
2022-11-01T05:44:14.373Z,3.28
2022-11-01T05:46:41.232Z,2.78
2022-11-01T05:49:08.005Z,2.92
2022-11-01T05:51:34.808Z,3.40
2022-11-01T05:54:01.629Z,3.15
2022-11-01T05:56:28.745Z,3.33
2022-11-01T05:58:55.581Z,3.13
2022-11-01T06:01:22.458Z,3.65
2022-11-01T06:03:50.030Z,2.75
2022-11-01T06:06:16.867Z,3.00
2022-11-01T06:08:43.744Z,3.58
2022-11-01T06:11:11.963Z,2.72
2022-11-01T06:13:38.745Z,2.58
2022-11-01T06:16:06.094Z,2.80
2022-11-01T06:18:33.099Z,4.38
2022-11-01T06:20:59.943Z,3.65
2022-11-01T06:23:26.823Z,3.72
2022-11-01T06:26:03.579Z,3.50
2022-11-01T06:28:30.515Z,3.72
2022-11-01T06:31:01.270Z,3.60
2022-11-01T06:33:28.486Z,4.13
2022-11-01T06:35:55.267Z,3.20
2022-11-01T06:38:22.221Z,3.60
2022-11-01T06:40:49.039Z,3.08
2022-11-01T06:43:16.010Z,3.28
2022-11-01T06:45:43.730Z,3.70
2022-11-01T06:48:10.650Z,3.47
2022-11-01T06:50:37.499Z,2.90
2022-11-01T06:53:04.379Z,3.47
2022-11-01T06:55:31.226Z,4.07
2022-11-01T06:58:03.095Z,3.95
2022-11-01T07:00:30.561Z,3.55
2022-11-01T07:03:04.725Z,3.83
2022-11-01T07:05:36.158Z,3.33
2022-11-01T07:08:05.913Z,3.42
2022-11-01T07:10:33.073Z,3.50
2022-11-01T07:13:00.756Z,3.08
2022-11-01T07:15:28.455Z,3.80
2022-11-01T07:17:58.228Z,4.45
2022-11-01T07:20:25.542Z,3.72
2022-11-01T07:23:05.187Z,3.15
2022-11-01T07:25:32.691Z,3.90
2022-11-01T07:27:59.762Z,3.63
2022-11-01T07:30:27.090Z,4.07
2022-11-01T07:33:04.175Z,3.17
2022-11-01T07:35:31.348Z,3.60
2022-11-01T07:37:59.309Z,3.35
2022-11-01T07:40:29.674Z,3.65
2022-11-01T07:42:58.364Z,3.20
2022-11-01T07:45:28.954Z,3.53
2022-11-01T07:48:05.538Z,4.20
2022-11-01T07:50:33.339Z,4.00
2022-11-01T07:53:07.694Z,3.63
2022-11-01T07:55:35.397Z,3.15
2022-11-01T07:58:02.817Z,3.30
2022-11-01T08:00:30.088Z,3.88
2022-11-01T08:03:03.599Z,4.18
2022-11-01T08:05:30.761Z,3.95
2022-11-01T08:07:57.664Z,3.70
2022-11-01T08:10:24.698Z,3.90
2022-11-01T08:12:51.541Z,3.60
2022-11-01T08:15:18.471Z,3.72
2022-11-01T08:17:45.381Z,4.40
2022-11-01T08:20:12.425Z,3.63
2022-11-01T08:22:40.543Z,4.25
2022-11-01T08:25:07.968Z,3.40
2022-11-01T08:27:35.517Z,3.58
2022-11-01T08:30:02.874Z,2.97
2022-11-01T08:32:29.707Z,3.40
2022-11-01T08:34:56.591Z,3.45
2022-11-01T08:37:23.763Z,3.75
2022-11-01T08:39:50.723Z,3.88
2022-11-01T08:42:17.607Z,3.10
2022-11-01T08:44:44.680Z,3.00
2022-11-01T08:47:11.645Z,3.13
2022-11-01T08:49:38.467Z,3.63
2022-11-01T08:52:05.952Z,2.85
2022-11-01T08:54:34.211Z,3.90
2022-11-01T08:57:02.656Z,2.70
2022-11-01T08:59:29.566Z,3.80
2022-11-01T09:01:56.510Z,2.78
2022-11-01T09:04:24.176Z,2.90
2022-11-01T09:06:51.044Z,3.10
2022-11-01T09:09:17.964Z,3.65
2022-11-01T09:11:44.862Z,3.05
2022-11-01T09:14:11.691Z,2.75
2022-11-01T09:16:38.627Z,3.10
2022-11-01T09:19:05.475Z,2.92
2022-11-01T09:21:32.472Z,3.63
2022-11-01T09:23:59.768Z,3.10
2022-11-01T09:26:29.704Z,4.13
2022-11-01T09:28:58.566Z,3.20
2022-11-01T09:31:25.610Z,3.55
2022-11-01T09:33:57.440Z,3.53
2022-11-01T09:36:24.745Z,3.00
2022-11-01T09:38:51.789Z,3.33
2022-11-01T09:41:33.558Z,3.60
2022-11-01T09:44:01.943Z,3.30
2022-11-01T09:46:31.870Z,3.47
2022-11-01T09:49:02.606Z,3.13
2022-11-01T09:51:30.350Z,3.35
2022-11-01T09:53:58.220Z,4.03
2022-11-01T09:56:31.945Z,3.80
2022-11-01T09:59:02.235Z,3.75
2022-11-01T10:01:39.506Z,3.50
2022-11-01T10:04:15.705Z,3.30
2022-11-01T10:06:50.220Z,2.97
2022-11-01T10:09:42.273Z,3.67
2022-11-01T10:12:11.889Z,2.70
2022-11-01T10:14:41.469Z,3.67
2022-11-01T10:17:20.108Z,2.88
2022-11-01T10:19:48.653Z,3.30
2022-11-01T10:22:46.066Z,2.80
2022-11-01T10:25:32.077Z,3.40
2022-11-01T10:28:04.312Z,3.47
2022-11-01T10:30:40.826Z,3.03
2022-11-01T10:33:26.453Z,3.63
2022-11-01T10:36:02.483Z,3.20
2022-11-01T10:41:51.083Z,2.25
2022-11-01T10:44:33.831Z,2.35
2022-11-01T10:47:04.803Z,2.28
2022-11-01T10:52:25.405Z,2.22
2022-11-01T10:54:52.606Z,2.20
2022-11-01T10:58:05.602Z,2.30
2022-11-01T11:00:32.854Z,2.30
2022-11-01T11:03:02.102Z,1.98
2022-11-01T11:05:29.271Z,1.88
2022-11-01T11:07:57.474Z,1.90
2022-11-01T11:10:27.015Z,2.38
2022-11-01T11:13:03.374Z,1.63
2022-11-01T11:15:47.715Z,1.80
2022-11-01T11:18:35.369Z,2.05
2022-11-01T11:21:04.368Z,1.90
2022-11-01T11:23:33.913Z,2.20
2022-11-01T11:26:02.616Z,2.17
2022-11-01T11:28:31.038Z,2.30
2022-11-01T11:31:28.402Z,2.28
2022-11-01T11:34:05.229Z,2.05
2022-11-01T11:36:36.535Z,2.50
2022-11-01T11:39:03.684Z,2.85
2022-11-01T11:41:36.291Z,2.42
2022-11-01T11:44:03.406Z,2.60
2022-11-01T11:46:30.249Z,3.42
2022-11-01T11:49:06.959Z,2.60
2022-11-01T11:51:38.004Z,2.95
2022-11-01T11:54:25.020Z,2.65
2022-11-01T11:56:53.130Z,2.58
2022-11-01T11:59:30.365Z,2.55
2022-11-01T12:02:02.064Z,2.53
2022-11-01T12:04:40.349Z,2.47
2022-11-01T12:07:11.229Z,2.80
2022-11-01T12:09:46.484Z,2.28
2022-11-01T12:12:27.478Z,2.20
2022-11-01T12:14:55.135Z,2.85
2022-11-01T12:17:32.960Z,2.50
2022-11-01T12:20:17.457Z,2.40
2022-11-01T12:23:08.051Z,2.78
2022-11-01T12:25:35.790Z,2.40
2022-11-01T12:28:15.661Z,2.42
2022-11-01T12:30:42.470Z,3.03
2022-11-01T12:33:34.014Z,3.13
2022-11-01T12:36:00.841Z,3.63
2022-11-01T12:38:39.181Z,2.97
2022-11-01T12:41:27.573Z,3.45
2022-11-01T12:44:12.622Z,3.00
2022-11-01T12:46:51.128Z,3.25
2022-11-01T12:49:26.994Z,3.28
2022-11-01T12:51:56.372Z,3.90
2022-11-01T12:54:36.785Z,3.10
2022-11-01T12:57:03.630Z,3.85
2022-11-01T12:59:36.766Z,3.45
2022-11-01T13:02:34.072Z,2.92
2022-11-01T13:05:06.206Z,3.60
2022-11-01T13:08:06.017Z,3.97
2022-11-01T13:11:03.314Z,3.47
2022-11-01T13:13:34.461Z,2.78
2022-11-01T13:16:13.742Z,2.38
2022-11-01T13:19:10.283Z,2.85
2022-11-01T13:21:55.867Z,2.50
2022-11-01T13:24:28.493Z,1.90
2022-11-01T13:26:57.116Z,2.30
2022-11-01T13:29:34.568Z,2.00
2022-11-01T13:32:06.833Z,2.10
2022-11-01T13:34:51.419Z,2.22
2022-11-01T13:37:30.316Z,2.15
2022-11-01T13:40:42.875Z,1.90
2022-11-01T13:43:11.337Z,1.70
2022-11-01T13:45:52.266Z,1.80
2022-11-01T13:49:04.231Z,2.83
2022-11-01T13:52:05.240Z,1.48
2022-11-01T13:54:43.729Z,1.52
2022-11-01T13:57:13.102Z,1.40
2022-11-01T13:59:44.369Z,1.52
2022-11-01T14:04:56.017Z,1.88
2022-11-01T14:07:24.149Z,1.40
2022-11-01T14:09:51.908Z,1.50
2022-11-01T14:12:35.390Z,1.55
2022-11-01T14:15:26.869Z,1.60
2022-11-01T14:17:56.489Z,1.38
2022-11-01T14:20:26.448Z,1.42
2022-11-01T14:22:53.963Z,1.52
2022-11-01T14:25:23.469Z,1.40
2022-11-01T14:27:52.107Z,1.73
2022-11-01T14:30:21.336Z,1.52
2022-11-01T14:32:53.092Z,1.35
2022-11-01T14:35:30.544Z,1.80
2022-11-01T14:38:00.801Z,1.60
2022-11-01T14:40:35.764Z,1.70
2022-11-01T14:43:30.452Z,1.63
2022-11-01T14:46:04.420Z,2.03
2022-11-01T14:48:47.819Z,1.80
2022-11-01T14:51:41.002Z,1.83
2022-11-01T14:54:35.286Z,1.90
2022-11-01T14:57:02.481Z,1.70
2022-11-01T14:59:32.034Z,1.63
2022-11-01T15:02:05.231Z,1.90
2022-11-01T15:04:38.868Z,2.20
2022-11-01T15:07:18.460Z,1.95
2022-11-01T15:09:58.712Z,2.10
2022-11-01T15:12:30.521Z,1.95
2022-11-01T15:14:57.724Z,2.20
2022-11-01T15:17:26.773Z,2.45
2022-11-01T15:19:54.494Z,2.00
2022-11-01T15:22:28.117Z,2.15
2022-11-01T15:25:02.000Z,1.80
2022-11-01T15:27:47.231Z,2.13
2022-11-01T15:30:22.830Z,2.38
2022-11-01T15:32:54.002Z,2.42
2022-11-01T15:35:25.597Z,2.20
2022-11-01T15:37:53.722Z,2.75
2022-11-01T15:40:31.182Z,2.60
2022-11-01T15:42:59.184Z,2.95
2022-11-01T15:45:31.369Z,2.17
2022-11-01T15:48:06.783Z,2.90
2022-11-01T15:50:36.227Z,3.25
2022-11-01T15:53:04.428Z,2.20
2022-11-01T15:55:36.164Z,2.45
2022-11-01T15:58:23.446Z,2.80
2022-11-01T16:00:52.432Z,2.28
2022-11-01T16:03:28.061Z,2.35
2022-11-01T16:05:59.807Z,3.00
2022-11-01T16:08:34.061Z,2.72
2022-11-01T16:11:01.018Z,2.60
2022-11-01T16:13:27.965Z,2.75
2022-11-01T16:16:06.129Z,2.65
2022-11-01T16:18:39.762Z,2.78
2022-11-01T16:21:27.860Z,2.78
2022-11-01T16:24:21.481Z,2.63
2022-11-01T16:26:55.702Z,3.13
2022-11-01T16:29:47.886Z,2.78
2022-11-01T16:32:24.460Z,2.45
2022-11-01T16:34:51.520Z,3.30
2022-11-01T16:37:29.520Z,2.85
2022-11-01T16:39:57.824Z,2.83
2022-11-01T16:42:24.735Z,3.30
2022-11-01T16:44:55.590Z,3.08
2022-11-01T16:47:22.616Z,3.38
2022-11-01T16:49:54.196Z,2.85
2022-11-01T16:52:22.384Z,2.80
2022-11-01T16:54:51.039Z,2.85
2022-11-01T16:57:25.874Z,2.63
2022-11-01T16:59:54.445Z,2.85
2022-11-01T17:02:23.902Z,2.95
2022-11-01T17:04:52.836Z,2.88
2022-11-01T17:07:20.297Z,2.92
2022-11-01T17:09:47.198Z,2.65
2022-11-01T17:12:14.041Z,3.15
2022-11-01T17:17:17.222Z,2.92
2022-11-01T17:19:46.177Z,3.38
2022-11-01T17:22:18.008Z,3.28
2022-11-01T17:24:45.264Z,3.47
2022-11-01T17:27:12.109Z,3.55
2022-11-01T17:29:38.972Z,3.60
2022-11-01T17:32:09.613Z,3.78
2022-11-01T17:34:37.153Z,3.25
2022-11-01T17:37:04.454Z,3.15
2022-11-01T17:39:31.332Z,3.92
2022-11-01T17:41:58.185Z,3.33
2022-11-01T17:44:25.156Z,2.83
2022-11-01T17:46:51.996Z,2.38
2022-11-01T17:49:21.618Z,3.95
2022-11-01T17:51:54.193Z,2.58
2022-11-01T17:54:21.938Z,2.75
2022-11-01T17:56:50.028Z,2.28
2022-11-01T17:59:16.825Z,2.08
2022-11-01T18:01:44.995Z,2.78
2022-11-01T18:04:11.992Z,2.63
2022-11-01T18:06:40.628Z,2.33
2022-11-01T18:09:20.920Z,2.30
2022-11-01T18:11:51.009Z,2.75
2022-11-01T18:14:36.196Z,2.10
2022-11-01T18:17:23.510Z,1.80
2022-11-01T18:19:59.517Z,2.05
2022-11-01T18:22:41.637Z,2.33
2022-11-01T18:25:29.201Z,1.98
2022-11-01T18:27:58.299Z,2.10
2022-11-01T18:30:25.753Z,2.38
2022-11-01T18:33:10.313Z,2.17
2022-11-01T18:35:53.237Z,1.88
2022-11-01T18:38:52.178Z,2.20
2022-11-01T18:41:20.220Z,1.90
2022-11-01T18:43:47.030Z,2.25
2022-11-01T18:46:26.894Z,2.33
2022-11-01T18:48:59.965Z,2.60
2022-11-01T18:51:31.506Z,2.50
2022-11-01T18:54:13.451Z,2.03
2022-11-01T18:56:41.340Z,2.10
2022-11-01T18:59:15.295Z,2.42
2022-11-01T19:01:42.312Z,2.63
2022-11-01T19:04:22.074Z,2.33
2022-11-01T19:06:49.054Z,2.75
2022-11-01T19:09:29.068Z,3.08
2022-11-01T19:12:33.221Z,2.90
2022-11-01T19:15:02.287Z,2.60
2022-11-01T19:17:30.770Z,2.97
2022-11-01T19:19:59.595Z,3.38
2022-11-01T19:22:35.240Z,3.40
2022-11-01T19:25:02.150Z,3.35
2022-11-01T19:27:29.137Z,2.80
2022-11-01T19:29:57.981Z,3.38
2022-11-01T19:32:25.194Z,2.30
2022-11-01T19:34:52.097Z,2.80
2022-11-01T19:37:31.613Z,2.83
2022-11-01T19:40:01.608Z,2.80
2022-11-01T19:42:30.060Z,2.90
2022-11-01T19:45:09.704Z,3.10
2022-11-01T19:47:41.017Z,3.40
2022-11-01T19:50:16.132Z,2.90
2022-11-01T19:52:47.088Z,3.13
2022-11-01T19:55:36.317Z,3.30
2022-11-01T19:58:15.462Z,3.20
2022-11-01T20:00:42.474Z,3.15
2022-11-01T20:03:17.723Z,3.67
2022-11-01T20:05:44.561Z,2.15
2022-11-01T20:08:37.074Z,2.65
2022-11-01T20:11:04.048Z,2.03
2022-11-01T20:13:30.994Z,2.30
2022-11-01T20:15:57.751Z,2.70
2022-11-01T20:18:24.685Z,1.83
2022-11-01T20:20:52.890Z,2.10
2022-11-01T20:23:26.203Z,2.55
2022-11-01T20:25:53.784Z,1.85
2022-11-01T20:28:20.620Z,1.83
2022-11-01T20:30:47.462Z,2.00
2022-11-01T20:33:14.397Z,1.55
2022-11-01T20:35:41.251Z,1.48
2022-11-01T20:38:08.071Z,1.63
2022-11-01T20:40:34.985Z,1.90
2022-11-01T20:43:02.219Z,1.70
2022-11-01T20:45:29.277Z,1.70
2022-11-01T20:47:56.218Z,1.80
2022-11-01T20:50:23.018Z,1.90
2022-11-01T20:52:49.849Z,1.52
2022-11-01T20:55:17.124Z,1.92
2022-11-01T20:57:43.955Z,2.00
2022-11-01T21:00:13.747Z,2.03
2022-11-01T21:02:40.631Z,1.80
2022-11-01T21:05:18.510Z,2.00
2022-11-01T21:07:47.965Z,1.63
2022-11-01T21:10:27.092Z,1.67
2022-11-01T21:12:54.041Z,1.50
2022-11-01T21:15:29.684Z,2.00
2022-11-01T21:18:09.475Z,1.48
2022-11-01T21:20:40.873Z,1.60
2022-11-01T21:23:32.068Z,1.88
2022-11-01T21:26:06.749Z,1.60
2022-11-01T21:28:35.544Z,1.95
2022-11-01T21:31:11.481Z,1.80
2022-11-01T21:33:43.124Z,1.60
2022-11-01T21:36:18.781Z,2.30
2022-11-01T21:38:53.309Z,1.98
2022-11-01T21:41:46.065Z,2.00
2022-11-01T21:44:18.967Z,2.22
2022-11-01T21:46:48.084Z,2.47
2022-11-01T21:49:25.805Z,2.33
2022-11-01T21:51:53.882Z,2.28
2022-11-01T21:54:20.870Z,2.35
2022-11-01T21:56:47.782Z,2.33
2022-11-01T21:59:14.650Z,2.45
2022-11-01T22:01:43.550Z,2.17
2022-11-01T22:04:10.832Z,2.92
2022-11-01T22:06:37.714Z,2.45
2022-11-01T22:09:04.770Z,2.47
2022-11-01T22:11:32.690Z,2.63
2022-11-01T22:13:59.847Z,2.53
2022-11-01T22:16:26.683Z,2.47
2022-11-01T22:18:53.535Z,2.25
2022-11-01T22:21:20.426Z,2.35
2022-11-01T22:23:47.312Z,2.33
2022-11-01T22:26:17.022Z,2.47
2022-11-01T22:28:43.846Z,2.53
2022-11-01T22:31:10.757Z,3.17
2022-11-01T22:33:37.568Z,2.50
2022-11-01T22:36:05.049Z,2.50
2022-11-01T22:38:38.337Z,2.45
2022-11-01T22:41:10.826Z,3.42
2022-11-01T22:46:15.477Z,2.00
2022-11-01T22:48:42.547Z,2.65
2022-11-01T22:51:16.570Z,1.83
2022-11-01T22:53:43.430Z,1.92
2022-11-01T22:56:10.223Z,2.38
2022-11-01T22:58:38.057Z,2.25
2022-11-01T23:01:23.488Z,2.28
2022-11-01T23:03:54.762Z,2.15
2022-11-01T23:06:21.508Z,2.15
2022-11-01T23:08:48.331Z,2.30
2022-11-01T23:11:42.710Z,2.05
2022-11-01T23:14:37.680Z,1.95
2022-11-01T23:17:26.188Z,1.90
2022-11-01T23:19:55.829Z,1.80
2022-11-01T23:22:24.356Z,2.25
2022-11-01T23:24:52.737Z,2.30
2022-11-01T23:27:20.124Z,2.00
2022-11-01T23:29:48.400Z,1.85
2022-11-01T23:32:15.357Z,2.75
2022-11-01T23:34:42.260Z,2.22
2022-11-01T23:37:18.508Z,1.98
2022-11-01T23:39:45.468Z,2.08
2022-11-01T23:42:20.430Z,2.10
2022-11-01T23:44:49.556Z,2.30
2022-11-01T23:47:33.523Z,1.63
2022-11-01T23:50:30.487Z,1.90
2022-11-01T23:52:59.678Z,1.52
2022-11-01T23:55:35.261Z,1.75
2022-11-01T23:58:12.041Z,2.17
